sensor_id;sensor_type;location;lat;lon;timestamp;P1;durP1;ratioP1;P2;durP2;ratioP2
34019;SDS011;20895;51.034;3.742;2023-04-15T00:01:52;6.85;;;3.28;;
34019;SDS011;20895;51.034;3.742;2023-04-15T00:04:17;6.38;;;3.35;;
34019;SDS011;20895;51.034;3.742;2023-04-15T00:06:48;8.50;;;4.05;;
34019;SDS011;20895;51.034;3.742;2023-04-15T00:09:13;5.78;;;3.38;;
34019;SDS011;20895;51.034;3.742;2023-04-15T00:11:39;7.38;;;3.20;;
34019;SDS011;20895;51.034;3.742;2023-04-15T00:14:04;4.60;;;2.75;;
34019;SDS011;20895;51.034;3.742;2023-04-15T00:16:30;6.15;;;2.92;;
34019;SDS011;20895;51.034;3.742;2023-04-15T00:18:55;4.05;;;2.38;;
34019;SDS011;20895;51.034;3.742;2023-04-15T00:21:20;4.57;;;2.40;;
34019;SDS011;20895;51.034;3.742;2023-04-15T00:23:46;3.90;;;2.20;;
34019;SDS011;20895;51.034;3.742;2023-04-15T00:26:16;3.95;;;2.67;;
34019;SDS011;20895;51.034;3.742;2023-04-15T00:28:43;3.70;;;2.22;;
34019;SDS011;20895;51.034;3.742;2023-04-15T00:31:08;4.70;;;2.70;;
34019;SDS011;20895;51.034;3.742;2023-04-15T00:33:33;4.63;;;2.60;;
34019;SDS011;20895;51.034;3.742;2023-04-15T00:36:00;6.18;;;2.67;;
34019;SDS011;20895;51.034;3.742;2023-04-15T00:38:26;4.95;;;3.10;;
34019;SDS011;20895;51.034;3.742;2023-04-15T00:40:52;10.00;;;3.35;;
34019;SDS011;20895;51.034;3.742;2023-04-15T00:43:17;7.00;;;3.05;;
34019;SDS011;20895;51.034;3.742;2023-04-15T00:45:42;3.97;;;2.83;;
34019;SDS011;20895;51.034;3.742;2023-04-15T00:48:08;6.20;;;2.97;;
34019;SDS011;20895;51.034;3.742;2023-04-15T00:50:34;4.30;;;3.20;;
34019;SDS011;20895;51.034;3.742;2023-04-15T00:52:59;5.22;;;2.58;;
34019;SDS011;20895;51.034;3.742;2023-04-15T00:55:25;4.60;;;2.63;;
34019;SDS011;20895;51.034;3.742;2023-04-15T00:57:50;6.75;;;2.63;;
34019;SDS011;20895;51.034;3.742;2023-04-15T01:00:16;3.78;;;2.65;;
34019;SDS011;20895;51.034;3.742;2023-04-15T01:02:42;4.18;;;3.35;;
34019;SDS011;20895;51.034;3.742;2023-04-15T01:05:07;5.15;;;3.53;;
34019;SDS011;20895;51.034;3.742;2023-04-15T01:07:33;3.70;;;3.03;;
34019;SDS011;20895;51.034;3.742;2023-04-15T01:09:58;7.20;;;3.60;;
34019;SDS011;20895;51.034;3.742;2023-04-15T01:12:25;9.10;;;4.47;;
34019;SDS011;20895;51.034;3.742;2023-04-15T01:14:51;7.88;;;4.30;;
34019;SDS011;20895;51.034;3.742;2023-04-15T01:17:17;4.88;;;3.78;;
34019;SDS011;20895;51.034;3.742;2023-04-15T01:19:43;5.05;;;3.45;;
34019;SDS011;20895;51.034;3.742;2023-04-15T01:22:08;5.85;;;3.95;;
34019;SDS011;20895;51.034;3.742;2023-04-15T01:24:34;5.65;;;3.78;;
34019;SDS011;20895;51.034;3.742;2023-04-15T01:26:59;7.47;;;4.30;;
34019;SDS011;20895;51.034;3.742;2023-04-15T01:29:25;6.03;;;4.28;;
34019;SDS011;20895;51.034;3.742;2023-04-15T01:31:51;5.57;;;4.78;;
34019;SDS011;20895;51.034;3.742;2023-04-15T01:34:17;6.95;;;4.40;;
34019;SDS011;20895;51.034;3.742;2023-04-15T01:36:42;6.07;;;4.97;;
34019;SDS011;20895;51.034;3.742;2023-04-15T01:39:08;7.85;;;5.43;;
34019;SDS011;20895;51.034;3.742;2023-04-15T01:41:33;8.27;;;5.22;;
34019;SDS011;20895;51.034;3.742;2023-04-15T01:43:59;9.82;;;5.43;;
34019;SDS011;20895;51.034;3.742;2023-04-15T01:46:24;7.28;;;5.38;;
34019;SDS011;20895;51.034;3.742;2023-04-15T01:48:50;7.78;;;5.10;;
34019;SDS011;20895;51.034;3.742;2023-04-15T01:51:15;7.97;;;4.80;;
34019;SDS011;20895;51.034;3.742;2023-04-15T01:53:41;8.93;;;5.20;;
34019;SDS011;20895;51.034;3.742;2023-04-15T01:56:06;6.63;;;5.00;;
34019;SDS011;20895;51.034;3.742;2023-04-15T01:58:32;6.25;;;4.43;;
34019;SDS011;20895;51.034;3.742;2023-04-15T02:00:57;8.13;;;4.53;;
34019;SDS011;20895;51.034;3.742;2023-04-15T02:03:23;4.97;;;3.50;;
34019;SDS011;20895;51.034;3.742;2023-04-15T02:05:48;4.47;;;3.33;;
34019;SDS011;20895;51.034;3.742;2023-04-15T02:08:15;7.40;;;3.47;;
34019;SDS011;20895;51.034;3.742;2023-04-15T02:10:40;5.70;;;3.15;;
34019;SDS011;20895;51.034;3.742;2023-04-15T02:13:05;6.93;;;3.20;;
34019;SDS011;20895;51.034;3.742;2023-04-15T02:15:31;4.70;;;3.00;;
34019;SDS011;20895;51.034;3.742;2023-04-15T02:17:59;5.50;;;3.97;;
34019;SDS011;20895;51.034;3.742;2023-04-15T02:20:25;5.30;;;4.32;;
34019;SDS011;20895;51.034;3.742;2023-04-15T02:22:51;6.35;;;4.72;;
34019;SDS011;20895;51.034;3.742;2023-04-15T02:25:16;8.73;;;5.07;;
34019;SDS011;20895;51.034;3.742;2023-04-15T02:27:42;7.20;;;5.68;;
34019;SDS011;20895;51.034;3.742;2023-04-15T02:30:08;9.57;;;5.45;;
34019;SDS011;20895;51.034;3.742;2023-04-15T02:32:34;7.90;;;5.18;;
34019;SDS011;20895;51.034;3.742;2023-04-15T02:35:06;7.68;;;5.32;;
34019;SDS011;20895;51.034;3.742;2023-04-15T02:37:32;5.93;;;4.07;;
34019;SDS011;20895;51.034;3.742;2023-04-15T02:40:01;4.85;;;3.60;;
34019;SDS011;20895;51.034;3.742;2023-04-15T02:42:26;4.60;;;3.35;;
34019;SDS011;20895;51.034;3.742;2023-04-15T02:44:52;5.15;;;3.58;;
34019;SDS011;20895;51.034;3.742;2023-04-15T02:47:19;6.32;;;3.70;;
34019;SDS011;20895;51.034;3.742;2023-04-15T02:49:44;5.13;;;3.72;;
34019;SDS011;20895;51.034;3.742;2023-04-15T02:52:09;8.23;;;4.25;;
34019;SDS011;20895;51.034;3.742;2023-04-15T02:54:35;5.75;;;4.40;;
34019;SDS011;20895;51.034;3.742;2023-04-15T02:57:00;5.72;;;4.28;;
34019;SDS011;20895;51.034;3.742;2023-04-15T02:59:26;4.47;;;3.33;;
34019;SDS011;20895;51.034;3.742;2023-04-15T03:01:51;5.53;;;4.30;;
34019;SDS011;20895;51.034;3.742;2023-04-15T03:04:16;5.03;;;4.43;;
34019;SDS011;20895;51.034;3.742;2023-04-15T03:06:42;6.40;;;5.07;;
34019;SDS011;20895;51.034;3.742;2023-04-15T03:09:07;8.77;;;6.13;;
34019;SDS011;20895;51.034;3.742;2023-04-15T03:11:32;7.05;;;5.78;;
34019;SDS011;20895;51.034;3.742;2023-04-15T03:13:57;8.90;;;6.70;;
34019;SDS011;20895;51.034;3.742;2023-04-15T03:16:23;8.25;;;5.85;;
34019;SDS011;20895;51.034;3.742;2023-04-15T03:18:48;8.60;;;6.15;;
34019;SDS011;20895;51.034;3.742;2023-04-15T03:21:14;10.23;;;6.35;;
34019;SDS011;20895;51.034;3.742;2023-04-15T03:23:39;9.32;;;7.13;;
34019;SDS011;20895;51.034;3.742;2023-04-15T03:26:04;8.23;;;7.05;;
34019;SDS011;20895;51.034;3.742;2023-04-15T03:28:30;9.48;;;7.57;;
34019;SDS011;20895;51.034;3.742;2023-04-15T03:30:56;9.13;;;8.05;;
34019;SDS011;20895;51.034;3.742;2023-04-15T03:33:22;9.90;;;8.40;;
34019;SDS011;20895;51.034;3.742;2023-04-15T03:35:47;20.15;;;10.60;;
34019;SDS011;20895;51.034;3.742;2023-04-15T03:38:12;10.98;;;9.27;;
34019;SDS011;20895;51.034;3.742;2023-04-15T03:40:39;12.75;;;10.38;;
34019;SDS011;20895;51.034;3.742;2023-04-15T03:43:05;12.68;;;11.18;;
34019;SDS011;20895;51.034;3.742;2023-04-15T03:45:30;11.43;;;10.32;;
34019;SDS011;20895;51.034;3.742;2023-04-15T03:47:55;11.27;;;10.15;;
34019;SDS011;20895;51.034;3.742;2023-04-15T03:50:21;13.35;;;10.57;;
34019;SDS011;20895;51.034;3.742;2023-04-15T03:52:46;14.40;;;12.05;;
34019;SDS011;20895;51.034;3.742;2023-04-15T03:55:11;13.52;;;12.13;;
34019;SDS011;20895;51.034;3.742;2023-04-15T03:57:36;14.70;;;11.70;;
34019;SDS011;20895;51.034;3.742;2023-04-15T04:00:03;13.45;;;12.02;;
34019;SDS011;20895;51.034;3.742;2023-04-15T04:02:29;16.80;;;12.85;;
34019;SDS011;20895;51.034;3.742;2023-04-15T04:04:54;14.38;;;12.88;;
34019;SDS011;20895;51.034;3.742;2023-04-15T04:07:19;17.05;;;12.80;;
34019;SDS011;20895;51.034;3.742;2023-04-15T04:09:47;14.68;;;11.95;;
34019;SDS011;20895;51.034;3.742;2023-04-15T04:12:12;14.73;;;11.70;;
34019;SDS011;20895;51.034;3.742;2023-04-15T04:14:37;13.43;;;11.50;;
34019;SDS011;20895;51.034;3.742;2023-04-15T04:17:03;14.02;;;11.30;;
34019;SDS011;20895;51.034;3.742;2023-04-15T04:19:28;13.80;;;10.60;;
34019;SDS011;20895;51.034;3.742;2023-04-15T04:21:53;16.38;;;11.23;;
34019;SDS011;20895;51.034;3.742;2023-04-15T04:24:19;12.52;;;10.02;;
34019;SDS011;20895;51.034;3.742;2023-04-15T04:26:45;13.82;;;11.30;;
34019;SDS011;20895;51.034;3.742;2023-04-15T04:29:10;15.68;;;10.98;;
34019;SDS011;20895;51.034;3.742;2023-04-15T04:31:36;14.13;;;11.25;;
34019;SDS011;20895;51.034;3.742;2023-04-15T04:34:01;12.07;;;10.23;;
34019;SDS011;20895;51.034;3.742;2023-04-15T04:36:26;12.70;;;10.60;;
34019;SDS011;20895;51.034;3.742;2023-04-15T04:38:52;12.93;;;10.23;;
34019;SDS011;20895;51.034;3.742;2023-04-15T04:41:17;13.30;;;11.23;;
34019;SDS011;20895;51.034;3.742;2023-04-15T04:43:42;11.85;;;9.98;;
34019;SDS011;20895;51.034;3.742;2023-04-15T04:46:08;12.93;;;10.98;;
34019;SDS011;20895;51.034;3.742;2023-04-15T04:48:33;14.68;;;10.40;;
34019;SDS011;20895;51.034;3.742;2023-04-15T04:50:58;14.65;;;10.15;;
34019;SDS011;20895;51.034;3.742;2023-04-15T04:53:24;15.35;;;10.48;;
34019;SDS011;20895;51.034;3.742;2023-04-15T04:55:49;13.98;;;10.63;;
34019;SDS011;20895;51.034;3.742;2023-04-15T04:58:15;13.07;;;10.30;;
34019;SDS011;20895;51.034;3.742;2023-04-15T05:00:40;10.88;;;9.23;;
34019;SDS011;20895;51.034;3.742;2023-04-15T05:03:06;13.70;;;10.48;;
34019;SDS011;20895;51.034;3.742;2023-04-15T05:05:31;11.75;;;9.93;;
34019;SDS011;20895;51.034;3.742;2023-04-15T05:07:56;11.40;;;9.40;;
34019;SDS011;20895;51.034;3.742;2023-04-15T05:10:21;12.13;;;9.90;;
34019;SDS011;20895;51.034;3.742;2023-04-15T05:12:47;9.85;;;8.00;;
34019;SDS011;20895;51.034;3.742;2023-04-15T05:15:12;10.73;;;7.85;;
34019;SDS011;20895;51.034;3.742;2023-04-15T05:17:37;11.75;;;8.27;;
34019;SDS011;20895;51.034;3.742;2023-04-15T05:20:03;11.20;;;8.52;;
34019;SDS011;20895;51.034;3.742;2023-04-15T05:22:28;15.75;;;9.45;;
34019;SDS011;20895;51.034;3.742;2023-04-15T05:24:53;10.80;;;8.60;;
34019;SDS011;20895;51.034;3.742;2023-04-15T05:27:19;9.32;;;8.15;;
34019;SDS011;20895;51.034;3.742;2023-04-15T05:29:44;12.88;;;7.72;;
34019;SDS011;20895;51.034;3.742;2023-04-15T05:32:10;9.80;;;8.25;;
34019;SDS011;20895;51.034;3.742;2023-04-15T05:34:36;10.85;;;7.82;;
34019;SDS011;20895;51.034;3.742;2023-04-15T05:37:01;9.57;;;7.53;;
34019;SDS011;20895;51.034;3.742;2023-04-15T05:39:27;9.07;;;6.90;;
34019;SDS011;20895;51.034;3.742;2023-04-15T05:41:52;11.15;;;7.20;;
34019;SDS011;20895;51.034;3.742;2023-04-15T05:44:17;9.65;;;7.45;;
34019;SDS011;20895;51.034;3.742;2023-04-15T05:46:43;10.60;;;6.78;;
34019;SDS011;20895;51.034;3.742;2023-04-15T05:49:08;9.25;;;7.07;;
34019;SDS011;20895;51.034;3.742;2023-04-15T05:51:33;7.95;;;6.93;;
34019;SDS011;20895;51.034;3.742;2023-04-15T05:53:59;9.23;;;6.63;;
34019;SDS011;20895;51.034;3.742;2023-04-15T05:56:24;11.55;;;7.18;;
34019;SDS011;20895;51.034;3.742;2023-04-15T05:58:52;9.50;;;6.85;;
34019;SDS011;20895;51.034;3.742;2023-04-15T06:01:17;10.32;;;6.93;;
34019;SDS011;20895;51.034;3.742;2023-04-15T06:03:42;12.40;;;7.10;;
34019;SDS011;20895;51.034;3.742;2023-04-15T06:06:08;10.68;;;6.75;;
34019;SDS011;20895;51.034;3.742;2023-04-15T06:08:33;8.77;;;6.63;;
34019;SDS011;20895;51.034;3.742;2023-04-15T06:10:59;9.90;;;7.20;;
34019;SDS011;20895;51.034;3.742;2023-04-15T06:13:27;12.52;;;8.52;;
34019;SDS011;20895;51.034;3.742;2023-04-15T06:15:53;15.48;;;9.05;;
34019;SDS011;20895;51.034;3.742;2023-04-15T06:18:18;17.98;;;10.30;;
34019;SDS011;20895;51.034;3.742;2023-04-15T06:20:44;11.45;;;8.15;;
34019;SDS011;20895;51.034;3.742;2023-04-15T06:23:09;18.88;;;10.32;;
34019;SDS011;20895;51.034;3.742;2023-04-15T06:25:35;14.70;;;8.20;;
34019;SDS011;20895;51.034;3.742;2023-04-15T06:28:00;13.85;;;8.18;;
34019;SDS011;20895;51.034;3.742;2023-04-15T06:30:25;11.48;;;6.50;;
34019;SDS011;20895;51.034;3.742;2023-04-15T06:32:54;12.65;;;7.50;;
34019;SDS011;20895;51.034;3.742;2023-04-15T06:35:19;14.55;;;8.52;;
34019;SDS011;20895;51.034;3.742;2023-04-15T06:37:44;17.17;;;8.75;;
34019;SDS011;20895;51.034;3.742;2023-04-15T06:40:10;13.98;;;8.43;;
34019;SDS011;20895;51.034;3.742;2023-04-15T06:42:35;12.23;;;8.63;;
34019;SDS011;20895;51.034;3.742;2023-04-15T06:45:02;15.48;;;8.68;;
34019;SDS011;20895;51.034;3.742;2023-04-15T06:47:27;10.85;;;7.55;;
34019;SDS011;20895;51.034;3.742;2023-04-15T06:49:53;14.98;;;8.48;;
34019;SDS011;20895;51.034;3.742;2023-04-15T06:52:18;14.25;;;8.50;;
34019;SDS011;20895;51.034;3.742;2023-04-15T06:54:43;14.55;;;7.72;;
34019;SDS011;20895;51.034;3.742;2023-04-15T06:57:08;10.82;;;7.55;;
34019;SDS011;20895;51.034;3.742;2023-04-15T06:59:34;12.38;;;6.97;;
34019;SDS011;20895;51.034;3.742;2023-04-15T07:02:00;13.13;;;7.28;;
34019;SDS011;20895;51.034;3.742;2023-04-15T07:04:25;11.55;;;6.65;;
34019;SDS011;20895;51.034;3.742;2023-04-15T07:06:51;12.18;;;7.25;;
34019;SDS011;20895;51.034;3.742;2023-04-15T07:09:17;12.00;;;7.70;;
34019;SDS011;20895;51.034;3.742;2023-04-15T07:11:42;14.25;;;6.68;;
34019;SDS011;20895;51.034;3.742;2023-04-15T07:14:07;13.52;;;6.93;;
34019;SDS011;20895;51.034;3.742;2023-04-15T07:16:33;11.30;;;6.95;;
34019;SDS011;20895;51.034;3.742;2023-04-15T07:18:58;9.50;;;6.55;;
34019;SDS011;20895;51.034;3.742;2023-04-15T07:21:24;13.48;;;7.13;;
34019;SDS011;20895;51.034;3.742;2023-04-15T07:23:49;11.30;;;7.15;;
34019;SDS011;20895;51.034;3.742;2023-04-15T07:26:15;11.77;;;8.10;;
34019;SDS011;20895;51.034;3.742;2023-04-15T07:28:40;13.23;;;6.50;;
34019;SDS011;20895;51.034;3.742;2023-04-15T07:31:05;12.75;;;6.97;;
34019;SDS011;20895;51.034;3.742;2023-04-15T07:33:30;9.70;;;5.13;;
34019;SDS011;20895;51.034;3.742;2023-04-15T07:35:56;8.68;;;4.50;;
34019;SDS011;20895;51.034;3.742;2023-04-15T07:38:21;9.25;;;4.00;;
34019;SDS011;20895;51.034;3.742;2023-04-15T07:40:47;7.40;;;4.65;;
34019;SDS011;20895;51.034;3.742;2023-04-15T07:43:12;7.68;;;4.50;;
34019;SDS011;20895;51.034;3.742;2023-04-15T07:45:38;7.63;;;4.90;;
34019;SDS011;20895;51.034;3.742;2023-04-15T07:48:03;7.32;;;5.40;;
34019;SDS011;20895;51.034;3.742;2023-04-15T07:50:28;10.77;;;5.95;;
34019;SDS011;20895;51.034;3.742;2023-04-15T07:52:54;10.10;;;6.28;;
34019;SDS011;20895;51.034;3.742;2023-04-15T07:55:20;12.52;;;7.22;;
34019;SDS011;20895;51.034;3.742;2023-04-15T07:57:47;11.07;;;7.05;;
34019;SDS011;20895;51.034;3.742;2023-04-15T08:00:12;10.88;;;7.32;;
34019;SDS011;20895;51.034;3.742;2023-04-15T08:02:38;12.82;;;8.05;;
34019;SDS011;20895;51.034;3.742;2023-04-15T08:05:03;10.32;;;7.22;;
34019;SDS011;20895;51.034;3.742;2023-04-15T08:07:29;11.27;;;7.53;;
34019;SDS011;20895;51.034;3.742;2023-04-15T08:09:55;11.68;;;8.23;;
34019;SDS011;20895;51.034;3.742;2023-04-15T08:12:20;11.55;;;8.80;;
34019;SDS011;20895;51.034;3.742;2023-04-15T08:14:46;13.18;;;8.40;;
34019;SDS011;20895;51.034;3.742;2023-04-15T08:17:11;9.07;;;7.25;;
34019;SDS011;20895;51.034;3.742;2023-04-15T08:19:36;14.25;;;8.82;;
34019;SDS011;20895;51.034;3.742;2023-04-15T08:22:02;12.68;;;8.25;;
34019;SDS011;20895;51.034;3.742;2023-04-15T08:24:27;13.55;;;8.27;;
34019;SDS011;20895;51.034;3.742;2023-04-15T08:26:52;10.55;;;7.45;;
34019;SDS011;20895;51.034;3.742;2023-04-15T08:29:18;9.20;;;7.28;;
34019;SDS011;20895;51.034;3.742;2023-04-15T08:31:43;9.63;;;7.78;;
34019;SDS011;20895;51.034;3.742;2023-04-15T08:34:12;9.55;;;7.95;;
34019;SDS011;20895;51.034;3.742;2023-04-15T08:36:37;10.63;;;7.85;;
34019;SDS011;20895;51.034;3.742;2023-04-15T08:39:03;11.38;;;8.13;;
34019;SDS011;20895;51.034;3.742;2023-04-15T08:41:31;9.20;;;7.90;;
34019;SDS011;20895;51.034;3.742;2023-04-15T08:44:03;11.90;;;8.15;;
34019;SDS011;20895;51.034;3.742;2023-04-15T08:46:30;10.88;;;7.70;;
34019;SDS011;20895;51.034;3.742;2023-04-15T08:48:56;8.63;;;6.43;;
34019;SDS011;20895;51.034;3.742;2023-04-15T08:51:21;12.75;;;8.48;;
34019;SDS011;20895;51.034;3.742;2023-04-15T08:53:49;11.48;;;8.05;;
34019;SDS011;20895;51.034;3.742;2023-04-15T08:56:15;10.65;;;7.65;;
34019;SDS011;20895;51.034;3.742;2023-04-15T08:58:43;10.23;;;7.35;;
34019;SDS011;20895;51.034;3.742;2023-04-15T09:01:09;15.07;;;7.65;;
34019;SDS011;20895;51.034;3.742;2023-04-15T09:03:34;10.18;;;7.38;;
34019;SDS011;20895;51.034;3.742;2023-04-15T09:05:59;8.25;;;6.97;;
34019;SDS011;20895;51.034;3.742;2023-04-15T09:08:24;7.53;;;6.72;;
34019;SDS011;20895;51.034;3.742;2023-04-15T09:10:50;9.32;;;6.70;;
34019;SDS011;20895;51.034;3.742;2023-04-15T09:13:16;10.15;;;7.20;;
34019;SDS011;20895;51.034;3.742;2023-04-15T09:15:42;16.80;;;9.52;;
34019;SDS011;20895;51.034;3.742;2023-04-15T09:18:08;9.77;;;7.00;;
34019;SDS011;20895;51.034;3.742;2023-04-15T09:20:39;9.90;;;6.97;;
34019;SDS011;20895;51.034;3.742;2023-04-15T09:23:12;10.93;;;7.80;;
34019;SDS011;20895;51.034;3.742;2023-04-15T09:25:38;11.80;;;8.20;;
34019;SDS011;20895;51.034;3.742;2023-04-15T09:28:03;10.73;;;7.60;;
34019;SDS011;20895;51.034;3.742;2023-04-15T09:30:29;10.35;;;7.95;;
34019;SDS011;20895;51.034;3.742;2023-04-15T09:32:55;11.55;;;8.38;;
34019;SDS011;20895;51.034;3.742;2023-04-15T09:35:21;10.38;;;8.02;;
34019;SDS011;20895;51.034;3.742;2023-04-15T09:37:47;13.13;;;8.98;;
34019;SDS011;20895;51.034;3.742;2023-04-15T09:40:12;10.23;;;7.40;;
34019;SDS011;20895;51.034;3.742;2023-04-15T09:42:54;13.65;;;8.30;;
34019;SDS011;20895;51.034;3.742;2023-04-15T09:45:20;11.38;;;8.70;;
34019;SDS011;20895;51.034;3.742;2023-04-15T09:47:45;12.77;;;8.35;;
34019;SDS011;20895;51.034;3.742;2023-04-15T09:50:11;10.50;;;8.18;;
34019;SDS011;20895;51.034;3.742;2023-04-15T09:52:40;12.20;;;8.98;;
34019;SDS011;20895;51.034;3.742;2023-04-15T09:55:07;12.48;;;8.18;;
34019;SDS011;20895;51.034;3.742;2023-04-15T09:57:35;9.77;;;7.85;;
34019;SDS011;20895;51.034;3.742;2023-04-15T10:00:04;14.68;;;8.63;;
34019;SDS011;20895;51.034;3.742;2023-04-15T10:02:30;9.98;;;8.68;;
34019;SDS011;20895;51.034;3.742;2023-04-15T10:04:56;13.27;;;9.60;;
34019;SDS011;20895;51.034;3.742;2023-04-15T10:07:21;24.20;;;16.38;;
34019;SDS011;20895;51.034;3.742;2023-04-15T10:09:47;25.17;;;15.63;;
34019;SDS011;20895;51.034;3.742;2023-04-15T10:12:13;31.05;;;16.40;;
34019;SDS011;20895;51.034;3.742;2023-04-15T10:14:40;22.45;;;14.57;;
34019;SDS011;20895;51.034;3.742;2023-04-15T10:17:07;20.00;;;14.68;;
34019;SDS011;20895;51.034;3.742;2023-04-15T10:19:35;27.77;;;17.73;;
34019;SDS011;20895;51.034;3.742;2023-04-15T10:22:01;23.08;;;15.68;;
34019;SDS011;20895;51.034;3.742;2023-04-15T10:24:26;21.17;;;14.75;;
34019;SDS011;20895;51.034;3.742;2023-04-15T10:26:52;19.50;;;13.35;;
34019;SDS011;20895;51.034;3.742;2023-04-15T10:29:18;15.60;;;10.93;;
34019;SDS011;20895;51.034;3.742;2023-04-15T10:31:44;12.70;;;10.15;;
34019;SDS011;20895;51.034;3.742;2023-04-15T10:34:10;16.27;;;9.73;;
34019;SDS011;20895;51.034;3.742;2023-04-15T10:36:36;9.23;;;7.60;;
34019;SDS011;20895;51.034;3.742;2023-04-15T10:39:01;8.98;;;6.47;;
34019;SDS011;20895;51.034;3.742;2023-04-15T10:41:27;8.95;;;5.32;;
34019;SDS011;20895;51.034;3.742;2023-04-15T10:46:39;6.72;;;4.20;;
34019;SDS011;20895;51.034;3.742;2023-04-15T10:49:14;7.55;;;4.13;;
34019;SDS011;20895;51.034;3.742;2023-04-15T10:51:41;7.10;;;4.32;;
34019;SDS011;20895;51.034;3.742;2023-04-15T10:56:40;6.78;;;4.28;;
34019;SDS011;20895;51.034;3.742;2023-04-15T10:59:05;7.65;;;3.83;;
34019;SDS011;20895;51.034;3.742;2023-04-15T11:01:50;5.32;;;3.33;;
34019;SDS011;20895;51.034;3.742;2023-04-15T11:07:04;5.35;;;3.47;;
34019;SDS011;20895;51.034;3.742;2023-04-15T11:09:30;5.47;;;4.00;;
34019;SDS011;20895;51.034;3.742;2023-04-15T11:14:38;7.10;;;3.80;;
34019;SDS011;20895;51.034;3.742;2023-04-15T11:17:04;4.68;;;2.72;;
34019;SDS011;20895;51.034;3.742;2023-04-15T11:19:36;5.28;;;3.30;;
34019;SDS011;20895;51.034;3.742;2023-04-15T11:22:06;5.45;;;2.85;;
34019;SDS011;20895;51.034;3.742;2023-04-15T11:24:32;5.57;;;2.97;;
34019;SDS011;20895;51.034;3.742;2023-04-15T11:26:57;4.80;;;3.03;;
34019;SDS011;20895;51.034;3.742;2023-04-15T11:29:27;12.13;;;6.93;;
34019;SDS011;20895;51.034;3.742;2023-04-15T11:31:52;5.03;;;3.50;;
34019;SDS011;20895;51.034;3.742;2023-04-15T11:34:21;5.97;;;3.38;;
34019;SDS011;20895;51.034;3.742;2023-04-15T11:36:46;8.48;;;3.88;;
34019;SDS011;20895;51.034;3.742;2023-04-15T11:39:12;6.40;;;3.58;;
34019;SDS011;20895;51.034;3.742;2023-04-15T11:41:37;6.10;;;3.50;;
34019;SDS011;20895;51.034;3.742;2023-04-15T11:44:14;6.90;;;3.33;;
34019;SDS011;20895;51.034;3.742;2023-04-15T11:46:40;3.88;;;2.70;;
34019;SDS011;20895;51.034;3.742;2023-04-15T11:49:05;6.30;;;2.90;;
34019;SDS011;20895;51.034;3.742;2023-04-15T11:51:31;6.80;;;3.17;;
34019;SDS011;20895;51.034;3.742;2023-04-15T11:53:56;4.78;;;3.08;;
34019;SDS011;20895;51.034;3.742;2023-04-15T11:56:23;3.83;;;2.90;;
34019;SDS011;20895;51.034;3.742;2023-04-15T11:58:53;5.32;;;2.90;;
34019;SDS011;20895;51.034;3.742;2023-04-15T12:01:20;3.67;;;2.83;;
34019;SDS011;20895;51.034;3.742;2023-04-15T12:03:54;4.03;;;3.30;;
34019;SDS011;20895;51.034;3.742;2023-04-15T12:06:24;5.65;;;3.75;;
34019;SDS011;20895;51.034;3.742;2023-04-15T12:13:58;4.60;;;2.80;;
34019;SDS011;20895;51.034;3.742;2023-04-15T12:16:26;4.30;;;2.75;;
34019;SDS011;20895;51.034;3.742;2023-04-15T12:18:58;4.43;;;3.33;;
34019;SDS011;20895;51.034;3.742;2023-04-15T12:21:24;5.43;;;3.25;;
34019;SDS011;20895;51.034;3.742;2023-04-15T12:23:53;4.50;;;3.30;;
34019;SDS011;20895;51.034;3.742;2023-04-15T12:26:28;12.15;;;4.72;;
34019;SDS011;20895;51.034;3.742;2023-04-15T12:28:54;5.60;;;3.83;;
34019;SDS011;20895;51.034;3.742;2023-04-15T12:31:20;5.07;;;3.63;;
34019;SDS011;20895;51.034;3.742;2023-04-15T12:33:47;5.00;;;3.45;;
34019;SDS011;20895;51.034;3.742;2023-04-15T12:36:13;6.13;;;3.90;;
34019;SDS011;20895;51.034;3.742;2023-04-15T12:38:38;5.03;;;3.67;;
34019;SDS011;20895;51.034;3.742;2023-04-15T12:41:03;7.15;;;3.88;;
34019;SDS011;20895;51.034;3.742;2023-04-15T12:43:29;5.07;;;3.47;;
34019;SDS011;20895;51.034;3.742;2023-04-15T12:45:54;7.72;;;3.72;;
34019;SDS011;20895;51.034;3.742;2023-04-15T12:48:19;5.45;;;3.40;;
34019;SDS011;20895;51.034;3.742;2023-04-15T12:50:45;7.35;;;3.13;;
34019;SDS011;20895;51.034;3.742;2023-04-15T12:53:10;4.35;;;2.97;;
34019;SDS011;20895;51.034;3.742;2023-04-15T12:55:35;4.05;;;2.53;;
34019;SDS011;20895;51.034;3.742;2023-04-15T12:58:01;5.50;;;3.03;;
34019;SDS011;20895;51.034;3.742;2023-04-15T13:00:26;7.03;;;4.05;;
34019;SDS011;20895;51.034;3.742;2023-04-15T13:02:51;4.97;;;3.83;;
34019;SDS011;20895;51.034;3.742;2023-04-15T13:05:18;6.93;;;4.47;;
34019;SDS011;20895;51.034;3.742;2023-04-15T13:07:43;12.70;;;6.90;;
34019;SDS011;20895;51.034;3.742;2023-04-15T13:10:08;9.90;;;5.63;;
34019;SDS011;20895;51.034;3.742;2023-04-15T13:12:34;11.45;;;5.45;;
34019;SDS011;20895;51.034;3.742;2023-04-15T13:15:03;7.75;;;4.47;;
34019;SDS011;20895;51.034;3.742;2023-04-15T13:17:29;7.85;;;4.90;;
34019;SDS011;20895;51.034;3.742;2023-04-15T13:19:55;7.32;;;3.78;;
34019;SDS011;20895;51.034;3.742;2023-04-15T13:22:21;6.75;;;3.78;;
34019;SDS011;20895;51.034;3.742;2023-04-15T13:24:46;7.85;;;3.63;;
34019;SDS011;20895;51.034;3.742;2023-04-15T13:27:11;7.18;;;3.63;;
34019;SDS011;20895;51.034;3.742;2023-04-15T13:29:36;5.93;;;3.60;;
34019;SDS011;20895;51.034;3.742;2023-04-15T13:32:02;7.22;;;3.60;;
34019;SDS011;20895;51.034;3.742;2023-04-15T13:34:28;4.78;;;3.35;;
34019;SDS011;20895;51.034;3.742;2023-04-15T13:36:53;8.25;;;3.53;;
34019;SDS011;20895;51.034;3.742;2023-04-15T13:39:18;4.60;;;2.90;;
34019;SDS011;20895;51.034;3.742;2023-04-15T13:41:44;4.43;;;2.70;;
34019;SDS011;20895;51.034;3.742;2023-04-15T13:44:10;5.63;;;2.63;;
34019;SDS011;20895;51.034;3.742;2023-04-15T13:46:36;6.72;;;3.75;;
34019;SDS011;20895;51.034;3.742;2023-04-15T13:49:03;7.85;;;4.45;;
34019;SDS011;20895;51.034;3.742;2023-04-15T13:51:28;5.85;;;4.22;;
34019;SDS011;20895;51.034;3.742;2023-04-15T13:53:53;9.05;;;5.25;;
34019;SDS011;20895;51.034;3.742;2023-04-15T13:56:19;6.63;;;4.50;;
34019;SDS011;20895;51.034;3.742;2023-04-15T13:58:45;6.95;;;5.05;;
34019;SDS011;20895;51.034;3.742;2023-04-15T14:01:10;8.25;;;5.43;;
34019;SDS011;20895;51.034;3.742;2023-04-15T14:03:36;8.43;;;5.10;;
34019;SDS011;20895;51.034;3.742;2023-04-15T14:06:01;6.57;;;4.53;;
34019;SDS011;20895;51.034;3.742;2023-04-15T14:08:26;7.32;;;5.70;;
34019;SDS011;20895;51.034;3.742;2023-04-15T14:10:51;10.40;;;5.97;;
34019;SDS011;20895;51.034;3.742;2023-04-15T14:13:17;9.82;;;5.63;;
34019;SDS011;20895;51.034;3.742;2023-04-15T14:15:43;8.63;;;6.38;;
34019;SDS011;20895;51.034;3.742;2023-04-15T14:18:08;8.02;;;5.15;;
34019;SDS011;20895;51.034;3.742;2023-04-15T14:20:34;7.22;;;5.50;;
34019;SDS011;20895;51.034;3.742;2023-04-15T14:22:59;9.32;;;6.13;;
34019;SDS011;20895;51.034;3.742;2023-04-15T14:25:25;8.23;;;5.30;;
34019;SDS011;20895;51.034;3.742;2023-04-15T14:27:51;11.40;;;5.75;;
34019;SDS011;20895;51.034;3.742;2023-04-15T14:30:16;8.10;;;5.35;;
34019;SDS011;20895;51.034;3.742;2023-04-15T14:32:41;8.52;;;5.40;;
34019;SDS011;20895;51.034;3.742;2023-04-15T14:35:06;7.45;;;5.00;;
34019;SDS011;20895;51.034;3.742;2023-04-15T14:37:32;8.88;;;4.75;;
34019;SDS011;20895;51.034;3.742;2023-04-15T14:39:57;9.55;;;4.75;;
34019;SDS011;20895;51.034;3.742;2023-04-15T14:42:22;6.47;;;4.50;;
34019;SDS011;20895;51.034;3.742;2023-04-15T14:44:47;6.68;;;3.97;;
34019;SDS011;20895;51.034;3.742;2023-04-15T14:47:13;7.95;;;4.22;;
34019;SDS011;20895;51.034;3.742;2023-04-15T14:49:38;7.28;;;3.17;;